Time;durP1;ratioP1;P1;durP2;ratioP2;P2;SDS_P1;SDS_P2;PMS_P1;PMS_P2;Temp;Humidity;BMP_temperature;BMP_pressure;BME280_temperature;BME280_humidity;BME280_pressure;Samples;Min_cycle;Max_cycle;Signal;HPM_P1;HPM_P2
2021/09/06 00:01:05;;;;;;;19.15;11.80;;;17.50;99.90;;;;;;5055187;28;20051;-85
2021/09/06 00:03:31;;;;;;;22.90;12.73;;;17.50;99.90;;;;;;5056122;28;20355;-85
2021/09/06 00:05:57;;;;;;;18.60;11.85;;;17.50;99.90;;;;;;5054381;28;20020;-85
2021/09/06 00:08:24;;;;;;;21.33;12.35;;;17.40;99.90;;;;;;5054548;28;20059;-85
2021/09/06 00:11:05;;;;;;;22.63;12.32;;;17.50;99.90;;;;;;5055558;28;20513;-85
2021/09/06 00:13:31;;;;;;;22.40;12.63;;;17.40;99.90;;;;;;5054677;28;20033;-85
2021/09/06 00:15:57;;;;;;;25.05;13.73;;;17.40;99.90;;;;;;5054625;28;20036;-85
2021/09/06 00:18:23;;;;;;;25.02;13.00;;;17.40;99.90;;;;;;5054766;28;20021;-85
2021/09/06 00:20:48;;;;;;;19.38;11.77;;;17.40;99.90;;;;;;5053517;28;20070;-85
2021/09/06 00:23:14;;;;;;;20.48;11.98;;;17.40;99.90;;;;;;5055808;28;20017;-85
2021/09/06 00:25:41;;;;;;;21.73;12.15;;;17.40;99.90;;;;;;5054414;28;20017;-86
2021/09/06 00:28:06;;;;;;;19.92;12.00;;;17.40;99.90;;;;;;5054583;28;20060;-85
2021/09/06 00:30:32;;;;;;;23.73;11.90;;;17.40;99.90;;;;;;5053627;28;20583;-85
2021/09/06 00:32:58;;;;;;;22.63;12.15;;;17.40;99.90;;;;;;5054387;28;20093;-85
2021/09/06 00:35:24;;;;;;;25.10;13.57;;;17.40;99.90;;;;;;5053832;28;20124;-84
2021/09/06 00:37:49;;;;;;;21.48;13.38;;;17.30;99.90;;;;;;5054055;28;20029;-85
2021/09/06 00:40:15;;;;;;;23.10;13.43;;;17.30;99.90;;;;;;5055045;28;20032;-85
2021/09/06 00:42:41;;;;;;;21.67;13.68;;;17.20;99.90;;;;;;5053963;28;20367;-85
2021/09/06 00:45:07;;;;;;;23.40;14.32;;;17.20;99.90;;;;;;5056551;28;20066;-85
2021/09/06 00:47:35;;;;;;;24.45;13.80;;;17.20;99.90;;;;;;5054324;28;20028;-84
2021/09/06 00:50:06;;;;;;;19.40;13.05;;;17.10;99.90;;;;;;5054769;28;20029;-85
2021/09/06 00:52:32;;;;;;;22.40;13.98;;;17.10;99.90;;;;;;5054015;28;20028;-85
2021/09/06 00:54:59;;;;;;;26.08;13.88;;;17.10;99.90;;;;;;5055487;28;20047;-85
2021/09/06 00:57:24;;;;;;;23.30;13.80;;;17.00;99.90;;;;;;5053800;28;20036;-85
2021/09/06 00:59:50;;;;;;;24.80;13.35;;;17.00;99.90;;;;;;5054650;28;20033;-84
2021/09/06 01:02:16;;;;;;;21.40;13.45;;;17.00;99.90;;;;;;5055258;28;20063;-85
2021/09/06 01:04:42;;;;;;;25.67;14.25;;;17.00;99.90;;;;;;5054021;28;20021;-85
2021/09/06 01:07:08;;;;;;;20.65;13.30;;;17.00;99.90;;;;;;5055254;28;20099;-85
2021/09/06 01:09:34;;;;;;;20.83;13.80;;;16.90;99.90;;;;;;5053349;28;20052;-85
2021/09/06 01:12:00;;;;;;;22.05;13.80;;;16.90;99.90;;;;;;5055254;28;20025;-85
2021/09/06 01:14:26;;;;;;;23.65;14.75;;;16.90;99.90;;;;;;5055056;28;20091;-85
2021/09/06 01:16:52;;;;;;;24.83;14.98;;;16.80;99.90;;;;;;5054004;28;20028;-85
2021/09/06 01:19:18;;;;;;;23.48;14.30;;;16.80;99.90;;;;;;5052732;28;20025;-85
2021/09/06 01:21:44;;;;;;;24.20;14.02;;;16.80;99.90;;;;;;5053435;28;20017;-85
2021/09/06 01:24:09;;;;;;;23.23;13.95;;;16.70;99.90;;;;;;5053396;28;20216;-85
2021/09/06 01:26:35;;;;;;;22.35;13.85;;;16.70;99.90;;;;;;5053556;28;20071;-85
2021/09/06 01:29:00;;;;;;;24.58;14.85;;;16.70;99.90;;;;;;5052800;28;20075;-85
2021/09/06 01:31:26;;;;;;;24.45;14.25;;;16.70;99.90;;;;;;5055314;28;20545;-85
2021/09/06 01:33:52;;;;;;;24.23;14.60;;;16.70;99.90;;;;;;5053598;28;20059;-85
2021/09/06 01:36:17;;;;;;;25.55;16.02;;;16.60;99.90;;;;;;5055034;28;20032;-85
2021/09/06 01:38:43;;;;;;;25.33;14.50;;;16.60;99.90;;;;;;5054898;28;20485;-85
2021/09/06 01:41:09;;;;;;;25.08;15.10;;;16.60;99.90;;;;;;5054014;28;20036;-85
2021/09/06 01:43:35;;;;;;;24.92;14.57;;;16.50;99.90;;;;;;5053844;28;20078;-85
2021/09/06 01:46:00;;;;;;;20.17;13.55;;;16.50;99.90;;;;;;5053393;28;20029;-85
2021/09/06 01:48:26;;;;;;;23.00;14.23;;;16.50;99.90;;;;;;5054727;28;20029;-85
2021/09/06 01:50:51;;;;;;;23.33;14.23;;;16.40;99.90;;;;;;5053121;28;20034;-86
2021/09/06 01:53:17;;;;;;;24.95;15.30;;;16.40;99.90;;;;;;5053680;28;20175;-85
2021/09/06 01:55:42;;;;;;;22.95;14.40;;;16.40;99.90;;;;;;5053486;28;20036;-85
2021/09/06 01:58:08;;;;;;;23.65;14.77;;;16.40;99.90;;;;;;5055205;28;20033;-85
2021/09/06 02:00:34;;;;;;;24.73;15.05;;;16.40;99.90;;;;;;5054468;28;20473;-85
2021/09/06 02:02:59;;;;;;;20.80;13.98;;;16.30;99.90;;;;;;5054569;28;20035;-85
2021/09/06 02:05:25;;;;;;;25.88;15.05;;;16.30;99.90;;;;;;5053226;28;20032;-85
2021/09/06 02:07:51;;;;;;;25.35;14.00;;;16.30;99.90;;;;;;5054870;28;20100;-85
2021/09/06 02:10:17;;;;;;;24.92;15.80;;;16.30;99.90;;;;;;5054942;28;20021;-85
2021/09/06 02:12:43;;;;;;;25.52;14.23;;;16.30;99.90;;;;;;5053570;28;20032;-85
2021/09/06 02:15:09;;;;;;;25.95;15.82;;;16.20;99.90;;;;;;5055305;28;20028;-85
2021/09/06 02:17:35;;;;;;;26.45;14.98;;;16.30;99.90;;;;;;5053278;28;20036;-86
2021/09/06 02:20:01;;;;;;;23.92;15.95;;;16.30;99.90;;;;;;5051462;28;20037;-85
2021/09/06 02:22:26;;;;;;;24.25;15.63;;;16.20;99.90;;;;;;5055463;28;20025;-86
2021/09/06 02:24:52;;;;;;;24.90;14.90;;;16.20;99.90;;;;;;5053682;28;20101;-85
2021/09/06 02:27:18;;;;;;;28.15;15.90;;;16.30;99.90;;;;;;5053697;28;20029;-86
2021/09/06 02:29:44;;;;;;;24.75;14.93;;;16.30;99.90;;;;;;5053328;28;20101;-85
2021/09/06 02:32:09;;;;;;;27.95;16.15;;;16.20;99.90;;;;;;5054063;28;20029;-85
2021/09/06 02:34:35;;;;;;;25.52;16.02;;;16.20;99.90;;;;;;5053831;28;20036;-85
2021/09/06 02:37:01;;;;;;;28.58;18.10;;;16.20;99.90;;;;;;5054114;28;20028;-85
2021/09/06 02:39:27;;;;;;;25.98;17.23;;;16.20;99.90;;;;;;5053293;28;20033;-85
2021/09/06 02:41:58;;;;;;;24.98;15.95;;;16.20;99.90;;;;;;5056382;28;20021;-85
2021/09/06 02:44:24;;;;;;;26.73;16.98;;;16.20;99.90;;;;;;5058188;28;20393;-85
2021/09/06 02:46:49;;;;;;;27.20;17.75;;;16.20;99.90;;;;;;5057762;28;20029;-85
2021/09/06 02:49:15;;;;;;;27.35;17.30;;;16.20;99.90;;;;;;5057177;28;20029;-84
2021/09/06 02:51:40;;;;;;;34.22;16.98;;;16.20;99.90;;;;;;5058565;28;20520;-84
2021/09/06 02:54:06;;;;;;;28.23;17.77;;;16.10;99.90;;;;;;5059379;28;20123;-85
2021/09/06 02:56:31;;;;;;;26.65;16.52;;;16.10;99.90;;;;;;5058572;28;20528;-85
2021/09/06 02:58:57;;;;;;;27.50;17.00;;;16.00;99.90;;;;;;5058718;28;20029;-85
2021/09/06 03:01:23;;;;;;;26.85;16.95;;;16.00;99.90;;;;;;5059588;28;20024;-85
2021/09/06 03:03:48;;;;;;;26.20;16.60;;;15.90;99.90;;;;;;5058243;28;20124;-85
2021/09/06 03:06:14;;;;;;;28.55;17.52;;;15.90;99.90;;;;;;5058158;28;20033;-85
2021/09/06 03:08:40;;;;;;;27.92;17.23;;;15.90;99.90;;;;;;5058083;28;20036;-86
2021/09/06 03:11:05;;;;;;;28.58;17.40;;;15.90;99.90;;;;;;5059085;28;20033;-86
2021/09/06 03:13:31;;;;;;;27.17;17.77;;;15.90;99.90;;;;;;5060240;28;20033;-85
2021/09/06 03:15:57;;;;;;;26.33;16.98;;;15.90;99.90;;;;;;5058019;28;20028;-85
2021/09/06 03:18:22;;;;;;;31.48;18.92;;;15.90;99.90;;;;;;5058093;28;20049;-86
2021/09/06 03:20:48;;;;;;;28.77;18.63;;;15.90;99.90;;;;;;5058508;28;20104;-86
2021/09/06 03:23:13;;;;;;;29.73;18.35;;;16.00;99.90;;;;;;5058320;28;20078;-85
2021/09/06 03:25:39;;;;;;;32.20;19.45;;;15.90;99.90;;;;;;5059624;28;20033;-85
2021/09/06 03:28:05;;;;;;;29.92;19.88;;;15.90;99.90;;;;;;5058580;28;20027;-85
2021/09/06 03:30:30;;;;;;;30.42;19.02;;;15.90;99.90;;;;;;5057769;28;20029;-85
2021/09/06 03:32:56;;;;;;;32.05;18.88;;;15.90;99.90;;;;;;5058085;28;20466;-85
2021/09/06 03:35:21;;;;;;;32.45;19.58;;;15.90;99.90;;;;;;5060028;28;20021;-85
2021/09/06 03:37:48;;;;;;;32.50;19.50;;;16.00;99.90;;;;;;5058366;28;20017;-85
2021/09/06 03:40:14;;;;;;;30.00;17.50;;;15.90;99.90;;;;;;5058121;28;20108;-85
2021/09/06 03:42:40;;;;;;;33.00;19.40;;;15.90;99.90;;;;;;5060103;28;20077;-85
2021/09/06 03:45:06;;;;;;;29.27;17.77;;;15.90;99.90;;;;;;5058615;28;20027;-85
2021/09/06 03:47:32;;;;;;;31.77;19.75;;;15.90;99.90;;;;;;5058248;28;20051;-86
2021/09/06 03:49:58;;;;;;;26.50;17.67;;;15.90;99.90;;;;;;5058245;28;20435;-85
2021/09/06 03:52:24;;;;;;;28.52;17.50;;;15.90;99.90;;;;;;5060564;28;20036;-85
2021/09/06 03:54:49;;;;;;;29.08;17.40;;;15.90;99.90;;;;;;5055822;28;20033;-84
2021/09/06 03:57:15;;;;;;;29.42;17.75;;;15.90;99.90;;;;;;5054601;28;20477;-85
2021/09/06 03:59:41;;;;;;;27.98;18.50;;;15.90;99.90;;;;;;5053171;28;20028;-85
2021/09/06 04:02:06;;;;;;;27.27;18.30;;;15.80;99.90;;;;;;5054160;28;20028;-86
2021/09/06 04:04:32;;;;;;;27.13;17.42;;;15.90;99.90;;;;;;5054714;28;20017;-85
2021/09/06 04:06:57;;;;;;;29.90;18.67;;;15.90;99.90;;;;;;5056227;28;20025;-85
2021/09/06 04:09:24;;;;;;;29.45;18.23;;;15.90;99.90;;;;;;5053491;28;20021;-85
2021/09/06 04:11:50;;;;;;;27.50;16.92;;;15.90;99.90;;;;;;5053966;28;20497;-84
2021/09/06 04:14:16;;;;;;;28.98;18.70;;;15.90;99.90;;;;;;5054959;28;20029;-85
2021/09/06 04:16:42;;;;;;;30.88;18.63;;;15.90;99.90;;;;;;5053759;28;20025;-84
2021/09/06 04:19:08;;;;;;;28.98;18.55;;;15.80;99.90;;;;;;5053526;28;20124;-85
2021/09/06 04:21:34;;;;;;;29.70;19.08;;;15.90;99.90;;;;;;5053287;28;20052;-85
2021/09/06 04:23:59;;;;;;;31.05;18.48;;;15.90;99.90;;;;;;5053344;28;20091;-85
2021/09/06 04:26:25;;;;;;;32.53;20.45;;;15.80;99.90;;;;;;5054780;28;20021;-86
2021/09/06 04:28:51;;;;;;;29.33;18.95;;;15.80;99.90;;;;;;5052866;28;20020;-84
2021/09/06 04:31:17;;;;;;;28.75;17.65;;;15.80;99.90;;;;;;5052628;28;20060;-84
2021/09/06 04:33:43;;;;;;;34.03;19.60;;;15.80;99.90;;;;;;5052855;28;20056;-85
2021/09/06 04:36:08;;;;;;;31.55;18.95;;;15.70;99.90;;;;;;5053105;28;20025;-84
2021/09/06 04:38:35;;;;;;;30.52;19.60;;;15.70;99.90;;;;;;5053218;28;20029;-85
2021/09/06 04:41:00;;;;;;;31.17;19.30;;;15.70;99.90;;;;;;5052544;28;20060;-85
2021/09/06 04:43:26;;;;;;;31.80;19.88;;;15.70;99.90;;;;;;5053481;28;20021;-85
2021/09/06 04:45:51;;;;;;;28.95;17.85;;;15.60;99.90;;;;;;5055346;28;20021;-85
2021/09/06 04:48:17;;;;;;;32.58;19.98;;;15.60;99.90;;;;;;5056883;28;20029;-85
2021/09/06 04:50:43;;;;;;;27.75;18.27;;;15.50;99.90;;;;;;5054644;28;20025;-85
2021/09/06 04:53:08;;;;;;;33.75;19.70;;;15.50;99.90;;;;;;5055304;28;20028;-85
2021/09/06 04:55:34;;;;;;;30.83;18.05;;;15.50;99.90;;;;;;5072101;23;20490;-90
2021/09/06 04:58:00;;;;;;;34.28;20.38;;;15.50;99.90;;;;;;5031952;28;20171;-90
2021/09/06 05:00:26;;;;;;;34.10;19.45;;;15.50;99.90;;;;;;5031871;28;20025;-90
2021/09/06 05:02:51;;;;;;;32.03;19.17;;;15.40;99.90;;;;;;5031972;28;20022;-89
2021/09/06 05:05:17;;;;;;;32.97;19.33;;;15.30;99.90;;;;;;5031423;28;20474;-90
2021/09/06 05:07:43;;;;;;;32.15;18.10;;;15.40;99.90;;;;;;5031955;28;20032;-90
2021/09/06 05:10:09;;;;;;;32.28;19.50;;;15.40;99.90;;;;;;5031815;28;20025;-88
2021/09/06 05:12:35;;;;;;;34.55;20.33;;;15.30;99.90;;;;;;5032003;28;20021;-90
2021/09/06 05:15:00;;;;;;;31.65;18.88;;;15.30;99.90;;;;;;5032910;28;20087;-90
2021/09/06 05:17:26;;;;;;;32.80;20.13;;;15.30;99.90;;;;;;5031727;28;20033;-90
2021/09/06 05:19:52;;;;;;;32.15;19.63;;;15.30;99.90;;;;;;5031649;28;20025;-90
2021/09/06 05:22:17;;;;;;;29.15;18.08;;;15.30;99.90;;;;;;5031635;28;20022;-90
2021/09/06 05:27:11;;;;;;;32.83;19.15;;;15.30;99.90;;;;;;5071251;28;20067;-89
2021/09/06 05:29:38;;;;;;;30.25;18.50;;;15.40;99.90;;;;;;5054742;28;20465;-89
2021/09/06 05:32:04;;;;;;;27.50;17.55;;;15.40;99.90;;;;;;5054621;28;20405;-88
2021/09/06 05:34:30;;;;;;;33.15;19.30;;;15.40;99.90;;;;;;5054755;28;20035;-89
2021/09/06 05:36:55;;;;;;;32.95;19.42;;;15.40;99.90;;;;;;5054867;28;20442;-87
2021/09/06 05:39:21;;;;;;;36.00;20.60;;;15.40;99.90;;;;;;5055188;28;20036;-88
2021/09/06 05:41:47;;;;;;;32.50;19.70;;;15.40;99.90;;;;;;5054239;28;20024;-89
2021/09/06 05:44:12;;;;;;;35.38;20.58;;;15.30;99.90;;;;;;5054302;28;20485;-90
2021/09/06 05:50:00;;;;;;;34.15;19.80;;;15.30;99.90;;;;;;5072437;28;20035;-90
2021/09/06 05:52:26;;;;;;;33.30;19.95;;;15.30;99.90;;;;;;5054827;28;20123;-90
2021/09/06 05:54:51;;;;;;;31.88;18.45;;;15.40;99.90;;;;;;5054508;28;20035;-89
2021/09/06 05:57:17;;;;;;;31.60;19.83;;;15.40;99.90;;;;;;5054421;28;20090;-91
2021/09/06 05:59:43;;;;;;;31.13;19.90;;;15.40;99.90;;;;;;5055336;28;20028;-89
2021/09/06 06:02:08;;;;;;;33.97;19.30;;;15.50;99.90;;;;;;5054627;28;20063;-90
2021/09/06 06:04:34;;;;;;;30.55;18.48;;;15.50;99.90;;;;;;5054414;28;20028;-91
2021/09/06 06:07:00;;;;;;;35.42;20.10;;;15.60;99.90;;;;;;5054141;28;20033;-91
2021/09/06 06:09:25;;;;;;;30.90;18.60;;;15.60;99.90;;;;;;5054463;28;20033;-90
2021/09/06 06:11:51;;;;;;;30.77;17.98;;;15.60;99.90;;;;;;5054465;28;20033;-90
2021/09/06 06:14:17;;;;;;;34.63;20.42;;;15.70;99.90;;;;;;5054624;28;20028;-90
2021/09/06 06:16:43;;;;;;;34.28;20.10;;;15.70;99.90;;;;;;5056250;28;20030;-90
2021/09/06 06:19:08;;;;;;;30.13;19.20;;;15.70;99.90;;;;;;5058735;28;20032;-91
2021/09/06 06:21:34;;;;;;;33.88;19.60;;;15.80;99.90;;;;;;5059416;28;20028;-90
2021/09/06 06:24:01;;;;;;;31.92;19.10;;;15.80;99.90;;;;;;5058130;28;20074;-91
2021/09/06 06:26:27;;;;;;;29.80;18.73;;;15.80;99.90;;;;;;5058095;28;20029;-90
2021/09/06 06:28:52;;;;;;;32.90;18.58;;;15.90;99.90;;;;;;5058229;28;20025;-90
2021/09/06 06:31:18;;;;;;;30.98;19.35;;;15.90;99.90;;;;;;5058122;28;20024;-91
2021/09/06 06:33:44;;;;;;;31.35;18.00;;;15.90;99.90;;;;;;5058592;28;20021;-91
2021/09/06 06:36:09;;;;;;;27.25;17.95;;;16.00;99.90;;;;;;5057920;28;20124;-91
2021/09/06 06:38:36;;;;;;;29.42;19.17;;;16.00;99.90;;;;;;5057987;28;20032;-90
2021/09/06 06:41:03;;;;;;;32.30;19.95;;;16.10;99.90;;;;;;5058163;28;20028;-90
2021/09/06 06:43:29;;;;;;;34.40;20.65;;;16.20;99.90;;;;;;5057672;28;20058;-90
2021/09/06 06:45:55;;;;;;;31.92;19.17;;;16.20;99.90;;;;;;5057687;28;20048;-91
2021/09/06 06:48:21;;;;;;;33.00;20.25;;;16.20;99.90;;;;;;5057882;28;20024;-91
2021/09/06 06:50:47;;;;;;;31.30;18.65;;;16.20;99.90;;;;;;5058749;28;20024;-91
2021/09/06 06:53:12;;;;;;;29.70;18.65;;;16.30;99.90;;;;;;5057545;28;20074;-90
2021/09/06 06:55:38;;;;;;;32.38;18.45;;;16.40;99.90;;;;;;5057690;28;20025;-90
2021/09/06 06:58:04;;;;;;;30.50;19.05;;;16.40;99.90;;;;;;5057708;28;20025;-90
2021/09/06 07:00:30;;;;;;;32.63;19.50;;;16.50;99.90;;;;;;5057616;28;20021;-91
2021/09/06 07:02:55;;;;;;;28.58;18.23;;;16.50;99.90;;;;;;5057579;28;20387;-90
2021/09/06 07:05:21;;;;;;;31.50;19.02;;;16.60;99.90;;;;;;5075165;28;20070;-91
2021/09/06 07:07:47;;;;;;;30.45;18.75;;;16.60;99.90;;;;;;5057282;28;20472;-91
2021/09/06 07:10:13;;;;;;;30.58;18.00;;;16.70;99.90;;;;;;5075168;28;20100;-91
2021/09/06 07:12:39;;;;;;;30.88;18.67;;;16.70;99.90;;;;;;5057357;28;20024;-91
2021/09/06 07:15:07;;;;;;;34.60;20.30;;;16.80;99.90;;;;;;5057066;28;20025;-90
2021/09/06 07:17:33;;;;;;;35.05;22.30;;;16.80;99.90;;;;;;5057260;28;20024;-90
2021/09/06 07:19:59;;;;;;;32.38;20.85;;;16.90;99.90;;;;;;5075057;28;20450;-90
2021/09/06 07:22:24;;;;;;;31.08;21.30;;;16.90;99.90;;;;;;5057270;28;20028;-91
2021/09/06 07:24:50;;;;;;;29.55;19.17;;;17.00;99.90;;;;;;5056946;28;20024;-91
2021/09/06 07:27:16;;;;;;;29.15;19.77;;;17.10;99.90;;;;;;5056644;28;20035;-91
2021/09/06 07:29:42;;;;;;;26.63;18.15;;;17.10;99.90;;;;;;5056963;28;20035;-91
2021/09/06 07:32:08;;;;;;;30.77;18.95;;;17.10;99.90;;;;;;5057024;28;20028;-90
2021/09/06 07:34:36;;;;;;;26.73;16.23;;;17.20;99.90;;;;;;5056771;28;20031;-90
2021/09/06 07:37:07;;;;;;;36.03;20.00;;;17.30;99.90;;;;;;5056989;28;20024;-91
2021/09/06 07:39:34;;;;;;;28.70;17.70;;;17.30;99.90;;;;;;5074734;28;20412;-91
2021/09/06 07:42:00;;;;;;;23.73;15.98;;;17.30;99.90;;;;;;5056800;28;20148;-91
2021/09/06 07:44:26;;;;;;;28.20;17.52;;;17.40;99.90;;;;;;5056771;28;20123;-92
2021/09/06 07:46:52;;;;;;;25.63;17.13;;;17.40;99.90;;;;;;5057066;28;20020;-91
2021/09/06 07:49:19;;;;;;;24.33;16.80;;;17.50;99.90;;;;;;5057657;28;20399;-91
2021/09/06 07:52:03;;;;;;;24.00;15.63;;;17.50;99.90;;;;;;5057207;28;20031;-91
2021/09/06 07:54:29;;;;;;;25.20;16.10;;;17.50;99.90;;;;;;5056836;28;20121;-91
2021/09/06 07:56:55;;;;;;;23.40;15.32;;;17.50;99.90;;;;;;5056842;28;20063;-91
2021/09/06 07:59:21;;;;;;;22.38;14.75;;;17.60;99.90;;;;;;5074589;28;20473;-90
2021/09/06 08:01:47;;;;;;;21.45;15.02;;;17.60;99.90;;;;;;5056722;28;20021;-90
2021/09/06 08:04:14;;;;;;;20.60;13.93;;;17.60;99.90;;;;;;5058426;28;20381;-91
2021/09/06 08:06:40;;;;;;;21.13;14.57;;;17.70;99.90;;;;;;5056555;28;20484;-91
2021/09/06 08:09:06;;;;;;;22.90;14.50;;;17.70;99.90;;;;;;5056520;28;20031;-91
2021/09/06 08:11:34;;;;;;;22.15;14.40;;;17.70;99.90;;;;;;5057024;28;20028;-90
2021/09/06 08:13:59;;;;;;;23.73;14.80;;;17.70;99.90;;;;;;5057410;28;20093;-91
2021/09/06 08:16:25;;;;;;;20.70;14.65;;;17.80;99.90;;;;;;5056837;28;20489;-91
2021/09/06 08:18:51;;;;;;;21.65;14.82;;;17.80;99.90;;;;;;5056984;28;20092;-90
2021/09/06 08:21:18;;;;;;;20.30;13.93;;;17.80;99.90;;;;;;5065685;28;20370;-91
2021/09/06 08:23:44;;;;;;;25.98;15.55;;;17.80;99.90;;;;;;5068565;28;20047;-91
2021/09/06 08:26:10;;;;;;;24.77;14.70;;;17.80;99.90;;;;;;5062632;28;20037;-91
2021/09/06 08:28:36;;;;;;;21.13;13.88;;;17.80;99.90;;;;;;5057519;28;20032;-91
2021/09/06 08:31:03;;;;;;;22.67;14.27;;;17.90;99.90;;;;;;5059067;28;20027;-91
2021/09/06 08:33:28;;;;;;;20.45;13.20;;;17.90;99.90;;;;;;5056021;28;20024;-90
2021/09/06 08:35:54;;;;;;;19.60;12.82;;;18.00;99.90;;;;;;5056132;28;20029;-90
2021/09/06 08:38:20;;;;;;;20.90;12.73;;;18.10;99.90;;;;;;5055916;28;20028;-92
2021/09/06 08:40:46;;;;;;;18.08;12.57;;;18.10;99.90;;;;;;5056265;28;20078;-91
2021/09/06 08:43:11;;;;;;;17.10;12.38;;;18.10;99.90;;;;;;5056370;28;20488;-91
2021/09/06 08:45:38;;;;;;;19.73;12.18;;;18.10;99.90;;;;;;5056659;28;20082;-91
2021/09/06 08:48:04;;;;;;;18.00;12.20;;;18.20;99.90;;;;;;5056863;28;20054;-91
2021/09/06 08:50:32;;;;;;;17.33;11.65;;;18.30;99.90;;;;;;5068061;28;20021;-91
2021/09/06 08:52:58;;;;;;;16.17;11.30;;;18.30;99.90;;;;;;5077652;28;20037;-91
2021/09/06 08:55:24;;;;;;;17.50;10.55;;;18.30;99.90;;;;;;5078937;28;20005;-90
2021/09/06 08:57:58;;;;;;;18.02;11.30;;;18.30;99.90;;;;;;5095942;28;20032;-91
2021/09/06 09:00:30;;;;;;;17.50;11.48;;;18.30;99.90;;;;;;5076882;28;20060;-91
2021/09/06 09:02:56;;;;;;;18.83;12.00;;;18.40;99.90;;;;;;5073327;28;20024;-92
2021/09/06 09:05:21;;;;;;;19.08;10.95;;;18.40;98.50;;;;;;5061979;28;20035;-90
2021/09/06 09:07:47;;;;;;;15.85;10.35;;;18.50;98.60;;;;;;5055805;28;20024;-91
2021/09/06 09:10:28;;;;;;;17.40;10.68;;;18.50;98.70;;;;;;5055370;28;20032;-91
2021/09/06 09:13:07;;;;;;;22.88;12.27;;;18.50;98.90;;;;;;5056334;28;20365;-89
2021/09/06 09:15:34;;;;;;;17.88;11.55;;;18.60;98.50;;;;;;5055509;28;20024;-89
2021/09/06 09:18:01;;;;;;;16.77;10.45;;;18.60;97.30;;;;;;5055099;28;20514;-91
2021/09/06 09:20:40;;;;;;;17.40;11.95;;;18.70;97.50;;;;;;5055063;28;20033;-91
2021/09/06 09:23:06;;;;;;;18.23;11.98;;;18.80;97.20;;;;;;5055202;28;20024;-91
2021/09/06 09:25:33;;;;;;;20.15;11.43;;;18.80;97.50;;;;;;5054834;28;20055;-92
2021/09/06 09:27:59;;;;;;;19.27;11.90;;;18.80;97.70;;;;;;5055237;28;20526;-91
2021/09/06 09:30:31;;;;;;;21.73;11.05;;;18.70;97.10;;;;;;5054842;28;20051;-91
2021/09/06 09:33:11;;;;;;;17.92;11.50;;;18.80;97.40;;;;;;5054984;28;20543;-91
2021/09/06 09:35:37;;;;;;;16.75;11.23;;;18.80;97.30;;;;;;5054606;28;20381;-91
2021/09/06 09:38:06;;;;;;;16.83;11.00;;;18.90;97.30;;;;;;5055017;28;20032;-91
2021/09/06 09:40:34;;;;;;;17.05;11.77;;;18.90;97.40;;;;;;5054831;28;20385;-91
2021/09/06 09:43:00;;;;;;;20.55;12.52;;;18.90;97.10;;;;;;5054743;28;20032;-90
2021/09/06 09:45:26;;;;;;;17.00;11.38;;;19.00;96.90;;;;;;5054645;28;20154;-91
2021/09/06 09:47:54;;;;;;;19.38;12.25;;;19.00;97.10;;;;;;5054707;28;20020;-91
2021/09/06 09:50:22;;;;;;;24.33;13.52;;;19.20;97.50;;;;;;5054513;28;20073;-91
2021/09/06 09:52:49;;;;;;;20.77;12.90;;;19.30;97.00;;;;;;5072465;28;20024;-90
2021/09/06 09:55:16;;;;;;;20.80;13.32;;;19.40;96.60;;;;;;5054430;28;20849;-91
2021/09/06 09:57:41;;;;;;;23.42;14.18;;;19.40;96.50;;;;;;5054462;28;20028;-91
2021/09/06 10:00:08;;;;;;;22.13;12.77;;;19.60;96.10;;;;;;5054451;28;20051;-91
2021/09/06 10:02:35;;;;;;;24.15;14.13;;;19.60;95.90;;;;;;5054468;28;20025;-90
2021/09/06 10:05:06;;;;;;;18.02;11.95;;;19.70;95.00;;;;;;5054298;28;20107;-91
2021/09/06 10:07:37;;;;;;;26.00;13.55;;;19.70;95.00;;;;;;5054252;28;20450;-91
2021/09/06 10:10:17;;;;;;;19.48;12.45;;;19.90;94.50;;;;;;5054575;28;20025;-91
2021/09/06 10:12:45;;;;;;;22.33;13.00;;;20.00;94.60;;;;;;5054427;28;20036;-91
2021/09/06 10:15:10;;;;;;;19.40;12.80;;;20.00;94.20;;;;;;5054243;28;20020;-91
2021/09/06 10:17:38;;;;;;;18.30;11.70;;;20.00;94.10;;;;;;5054340;28;20043;-91
2021/09/06 10:20:17;;;;;;;20.50;13.23;;;19.90;94.60;;;;;;5054199;28;20121;-91
2021/09/06 10:22:46;;;;;;;18.13;12.45;;;20.00;94.50;;;;;;5072209;28;20071;-90
2021/09/06 10:25:17;;;;;;;19.45;12.55;;;20.00;94.50;;;;;;5054209;28;20449;-91
2021/09/06 10:28:04;;;;;;;19.73;12.52;;;20.00;94.70;;;;;;5054434;28;20024;-91
2021/09/06 10:30:53;;;;;;;19.48;12.07;;;20.00;94.70;;;;;;5054385;28;20029;-91
2021/09/06 10:33:28;;;;;;;18.50;11.80;;;20.00;94.80;;;;;;5054146;28;20025;-91
2021/09/06 10:36:04;;;;;;;21.15;12.80;;;20.20;94.30;;;;;;5054202;28;20167;-91
2021/09/06 10:38:47;;;;;;;20.55;12.52;;;20.20;93.70;;;;;;5054054;28;20395;-91
2021/09/06 10:41:20;;;;;;;18.92;11.32;;;20.20;93.70;;;;;;5054274;28;20021;-91
2021/09/06 10:43:51;;;;;;;17.77;11.30;;;20.20;93.60;;;;;;5054072;28;20028;-91
2021/09/06 10:46:20;;;;;;;22.83;13.07;;;20.10;93.50;;;;;;5054098;28;20547;-91
2021/09/06 10:48:46;;;;;;;22.55;13.43;;;20.10;93.40;;;;;;5054048;28;20131;-92
2021/09/06 10:51:12;;;;;;;19.95;12.00;;;20.20;93.10;;;;;;5053858;28;20111;-91
2021/09/06 10:53:38;;;;;;;23.48;14.02;;;20.20;93.20;;;;;;5053920;28;20046;-91
2021/09/06 10:56:07;;;;;;;22.65;12.95;;;20.20;93.20;;;;;;5053884;28;20394;-92
2021/09/06 10:58:33;;;;;;;25.48;13.63;;;20.20;93.60;;;;;;5053687;28;20025;-88
2021/09/06 11:01:05;;;;;;;19.92;12.32;;;20.30;93.40;;;;;;5054036;28;20071;-89
2021/09/06 11:03:38;;;;;;;19.83;12.90;;;20.30;93.20;;;;;;5056709;28;20020;-89
2021/09/06 11:06:04;;;;;;;24.88;13.90;;;20.30;93.00;;;;;;5057423;28;20020;-89
2021/09/06 11:08:36;;;;;;;18.88;12.05;;;20.40;92.90;;;;;;5057579;28;20075;-89
2021/09/06 11:11:05;;;;;;;18.63;11.45;;;20.40;92.70;;;;;;5057355;28;20033;-88
2021/09/06 11:13:43;;;;;;;19.52;11.48;;;20.30;92.70;;;;;;5057317;28;20048;-89
2021/09/06 11:16:11;;;;;;;21.40;12.95;;;20.20;92.90;;;;;;5057296;28;20024;-91
2021/09/06 11:18:45;;;;;;;19.80;12.40;;;20.30;92.90;;;;;;5057149;28;20025;-91
2021/09/06 11:21:12;;;;;;;21.27;12.70;;;20.30;92.50;;;;;;5057236;28;20074;-91
2021/09/06 11:23:44;;;;;;;26.42;13.82;;;20.30;92.80;;;;;;5057128;28;20021;-91
2021/09/06 11:26:21;;;;;;;24.08;12.77;;;20.30;92.90;;;;;;5057134;28;20067;-89
2021/09/06 11:28:47;;;;;;;22.95;12.55;;;20.40;93.00;;;;;;5057062;28;20059;-89
2021/09/06 11:31:17;;;;;;;21.05;12.95;;;20.40;92.60;;;;;;5057207;28;20025;-91
2021/09/06 11:33:46;;;;;;;23.33;13.35;;;20.40;92.70;;;;;;5057150;28;20032;-89
2021/09/06 11:36:16;;;;;;;19.55;11.65;;;20.40;93.00;;;;;;5057314;28;20025;-92
2021/09/06 11:38:41;;;;;;;24.33;14.82;;;20.30;93.40;;;;;;5057644;28;20122;-90
2021/09/06 11:41:07;;;;;;;26.02;13.55;;;20.50;93.40;;;;;;5074664;28;20024;-90
2021/09/06 11:43:33;;;;;;;21.58;12.27;;;20.60;93.20;;;;;;5056772;28;20394;-90
2021/09/06 11:46:01;;;;;;;19.67;12.13;;;20.60;92.80;;;;;;5056838;28;20016;-90
2021/09/06 11:48:27;;;;;;;19.38;11.95;;;20.50;92.80;;;;;;5056871;28;20028;-89
2021/09/06 11:50:53;;;;;;;24.80;13.30;;;20.60;92.90;;;;;;5056737;28;20028;-89
2021/09/06 11:53:20;;;;;;;28.42;14.25;;;20.60;93.40;;;;;;5056644;28;20058;-90
2021/09/06 11:55:55;;;;;;;21.50;12.77;;;20.70;93.30;;;;;;5074360;28;20100;-90
2021/09/06 11:58:29;;;;;;;30.05;13.95;;;20.80;92.50;;;;;;5056468;28;20021;-90
2021/09/06 12:01:05;;;;;;;23.77;13.15;;;20.80;92.60;;;;;;5056551;28;20020;-89
2021/09/06 12:03:32;;;;;;;23.60;13.18;;;21.00;92.50;;;;;;5056316;28;20024;-89
2021/09/06 12:06:10;;;;;;;21.65;13.05;;;21.10;91.90;;;;;;5056161;28;20021;-89
2021/09/06 12:08:39;;;;;;;24.08;13.07;;;21.20;91.80;;;;;;5073075;28;20082;-90
2021/09/06 12:11:09;;;;;;;20.77;11.95;;;21.20;92.00;;;;;;5074512;28;20028;-89
2021/09/06 12:13:36;;;;;;;18.65;11.30;;;21.30;91.70;;;;;;5056256;28;20366;-89
2021/09/06 12:16:11;;;;;;;19.05;11.77;;;21.20;91.60;;;;;;5056220;28;20492;-89
2021/09/06 12:18:44;;;;;;;16.17;11.32;;;21.30;89.90;;;;;;5056012;28;20048;-89
2021/09/06 12:21:19;;;;;;;18.05;10.82;;;21.40;88.30;;;;;;5056450;28;20038;-89
2021/09/06 12:24:08;;;;;;;21.83;11.23;;;21.40;87.90;;;;;;5056039;28;20025;-89
2021/09/06 12:26:48;;;;;;;21.48;11.25;;;21.60;88.60;;;;;;5055915;28;20035;-89
2021/09/06 12:29:27;;;;;;;19.55;10.93;;;21.60;85.40;;;;;;5056068;28;20028;-89
2021/09/06 12:31:53;;;;;;;23.92;11.70;;;21.60;85.30;;;;;;5056424;28;20418;-89
2021/09/06 12:34:18;;;;;;;22.98;12.38;;;21.60;85.80;;;;;;5073798;28;20113;-90